Time,TemperatureF,DewpointF,PressureIn,WindDirection,WindDirectionDegrees,WindSpeedMPH,WindSpeedGustMPH,Humidity,HourlyPrecipIn,Conditions,Clouds,dailyrainin,SoftwareType,DateUTC
2013-05-09 00:06:00,36.1,20.0,30.43,NW,319,0.0,0.0,52,0.00,,,0.00,weatherlink.com 1.10,2013-05-09 08:06:00,
2013-05-09 00:21:00,35.7,19.0,30.43,NW,319,0.0,0.0,52,0.00,,,0.00,weatherlink.com 1.10,2013-05-09 08:21:00,
2013-05-09 00:37:00,34.3,21.0,30.44,NNE,27,0.0,1.0,58,0.00,,,0.00,weatherlink.com 1.10,2013-05-09 08:37:00,
2013-05-09 00:52:00,33.5,20.0,30.44,NNE,27,0.0,0.0,59,0.00,,,0.00,weatherlink.com 1.10,2013-05-09 08:52:00,
2013-05-09 01:07:00,32.3,20.0,30.44,NNE,27,0.0,0.0,60,0.00,,,0.00,weatherlink.com 1.10,2013-05-09 09:07:00,
2013-05-09 01:22:00,31.5,20.0,30.44,NNE,27,0.0,0.0,62,0.00,,,0.00,weatherlink.com 1.10,2013-05-09 09:22:00,
2013-05-09 01:37:00,31.0,21.0,30.44,NNE,27,0.0,0.0,67,0.00,,,0.00,weatherlink.com 1.10,2013-05-09 09:37:00,
2013-05-09 01:52:00,30.6,20.0,30.45,NNE,27,0.0,0.0,65,0.00,,,0.00,weatherlink.com 1.10,2013-05-09 09:52:00,
2013-05-09 02:07:00,30.1,22.0,30.45,NNE,27,0.0,0.0,72,0.00,,,0.00,weatherlink.com 1.10,2013-05-09 10:07:00,
2013-05-09 02:22:00,29.6,21.0,30.45,NNE,27,0.0,0.0,70,0.00,,,0.00,weatherlink.com 1.10,2013-05-09 10:22:00,
2013-05-09 02:37:00,29.3,21.0,30.46,NNE,32,0.0,0.0,71,0.00,,,0.00,weatherlink.com 1.10,2013-05-09 10:37:00,
2013-05-09 02:52:00,28.9,22.0,30.46,NNE,32,0.0,0.0,74,0.00,,,0.00,weatherlink.com 1.10,2013-05-09 10:52:00,
2013-05-09 03:07:00,28.8,21.0,30.46,NW,307,0.0,1.0,72,0.00,,,0.00,weatherlink.com 1.10,2013-05-09 11:07:00,
2013-05-09 03:23:00,28.8,22.0,30.46,NW,307,0.0,0.0,74,0.00,,,0.00,weatherlink.com 1.10,2013-05-09 11:23:00,
2013-05-09 03:37:00,28.3,22.0,30.46,NW,307,0.0,1.0,78,0.00,,,0.00,weatherlink.com 1.10,2013-05-09 11:37:00,
2013-05-09 03:52:00,27.8,21.0,30.46,East,101,0.0,1.0,77,0.00,,,0.00,weatherlink.com 1.10,2013-05-09 11:52:00,
2013-05-09 04:07:00,28.3,21.0,30.46,East,101,0.0,1.0,75,0.00,,,0.00,weatherlink.com 1.10,2013-05-09 12:07:00,
2013-05-09 04:22:00,28.5,22.0,30.46,East,99,0.0,1.0,75,0.00,,,0.00,weatherlink.com 1.10,2013-05-09 12:22:00,
2013-05-09 04:37:00,28.7,21.0,30.46,East,97,0.0,1.0,73,0.00,,,0.00,weatherlink.com 1.10,2013-05-09 12:37:00,
2013-05-09 04:52:00,28.3,21.0,30.46,East,97,0.0,0.0,73,0.00,,,0.00,weatherlink.com 1.10,2013-05-09 12:52:00,
2013-05-09 05:07:00,27.8,21.0,30.46,East,91,0.0,1.0,74,0.00,,,0.00,weatherlink.com 1.10,2013-05-09 13:07:00,
2013-05-09 05:22:00,27.9,20.0,30.46,East,91,0.0,0.0,72,0.00,,,0.00,weatherlink.com 1.10,2013-05-09 13:22:00,
2013-05-09 05:37:00,28.3,20.0,30.46,West,273,0.0,1.0,72,0.00,,,0.00,weatherlink.com 1.10,2013-05-09 13:37:00,
2013-05-09 05:52:00,28.3,20.0,30.46,NE,47,0.0,0.0,72,0.00,,,0.00,weatherlink.com 1.10,2013-05-09 13:52:00,
2013-05-09 06:07:00,28.3,21.0,30.46,NW,319,0.0,1.0,74,0.00,,,0.00,weatherlink.com 1.10,2013-05-09 14:07:00,
2013-05-09 06:22:00,28.3,21.0,30.45,NW,319,0.0,1.0,73,0.00,,,0.00,weatherlink.com 1.10,2013-05-09 14:22:00,
2013-05-09 06:37:00,28.8,21.0,30.45,NW,319,0.0,1.0,72,0.00,,,0.00,weatherlink.com 1.10,2013-05-09 14:37:00,
2013-05-09 06:52:00,29.6,21.0,30.45,NW,306,0.0,0.0,70,0.00,,,0.00,weatherlink.com 1.10,2013-05-09 14:52:00,
2013-05-09 07:07:00,30.1,21.0,30.45,NW,306,0.0,0.0,68,0.00,,,0.00,weatherlink.com 1.10,2013-05-09 15:07:00,
2013-05-09 07:22:00,31.0,21.0,30.45,West,271,0.0,1.0,67,0.00,,,0.00,weatherlink.com 1.10,2013-05-09 15:22:00,
2013-05-09 07:37:00,32.3,21.0,30.45,West,278,0.0,1.0,64,0.00,,,0.00,weatherlink.com 1.10,2013-05-09 15:37:00,
2013-05-09 07:52:00,33.1,22.0,30.44,NW,311,0.0,1.0,63,0.00,,,0.00,weatherlink.com 1.10,2013-05-09 15:52:00,
2013-05-09 08:07:00,34.2,21.0,30.44,SW,230,0.0,1.0,60,0.00,,,0.00,weatherlink.com 1.10,2013-05-09 16:07:00,
2013-05-09 08:22:00,35.1,24.0,30.44,WNW,284,0.0,1.0,63,0.00,,,0.00,weatherlink.com 1.10,2013-05-09 16:22:00,
2013-05-09 08:37:00,37.1,23.0,30.44,SW,226,0.0,1.0,56,0.00,,,0.00,weatherlink.com 1.10,2013-05-09 16:37:00,
2013-05-09 08:52:00,37.8,23.0,30.44,SW,233,0.0,2.0,55,0.00,,,0.00,weatherlink.com 1.10,2013-05-09 16:52:00,
2013-05-09 09:22:00,42.1,22.0,30.43,ESE,104,5.0,5.0,45,0.00,,,0.00,weatherlink.com 1.10,2013-05-09 17:22:00,
2013-05-09 09:38:00,43.1,22.0,30.43,SW,229,1.0,2.0,43,0.00,,,0.00,weatherlink.com 1.10,2013-05-09 17:38:00,
2013-05-09 09:53:00,43.6,22.0,30.43,West,276,1.0,3.0,42,0.00,,,0.00,weatherlink.com 1.10,2013-05-09 17:53:00,
2013-05-09 10:08:00,45.3,21.0,30.42,ESE,102,1.0,2.0,38,0.00,,,0.00,weatherlink.com 1.10,2013-05-09 18:08:00,
2013-05-09 10:23:00,47.0,22.0,30.42,West,273,0.0,2.0,38,0.00,,,0.00,weatherlink.com 1.10,2013-05-09 18:23:00,
2013-05-09 10:38:00,48.6,21.0,30.42,South,188,1.0,3.0,33,0.00,,,0.00,weatherlink.com 1.10,2013-05-09 18:38:00,
2013-05-09 10:53:00,49.7,21.0,30.41,WSW,243,0.0,1.0,33,0.00,,,0.00,weatherlink.com 1.10,2013-05-09 18:53:00,
2013-05-09 11:08:00,49.8,21.0,30.41,East,82,1.0,4.0,32,0.00,,,0.00,weatherlink.com 1.10,2013-05-09 19:08:00,
2013-05-09 11:38:00,50.2,21.0,30.40,NW,304,0.0,4.0,32,0.00,,,0.00,weatherlink.com 1.10,2013-05-09 19:38:00,
2013-05-09 11:53:00,51.0,20.0,30.40,SSW,194,1.0,3.0,30,0.00,,,0.00,weatherlink.com 1.10,2013-05-09 19:53:00,
2013-05-09 12:08:00,52.7,21.0,30.39,NW,316,0.0,2.0,29,0.00,,,0.00,weatherlink.com 1.10,2013-05-09 20:08:00,
2013-05-09 12:23:00,52.7,21.0,30.39,NW,315,0.0,4.0,29,0.00,,,0.00,weatherlink.com 1.10,2013-05-09 20:23:00,
2013-05-09 12:38:00,53.3,22.0,30.39,NNW,338,1.0,3.0,30,0.00,,,0.00,weatherlink.com 1.10,2013-05-09 20:38:00,
2013-05-09 12:53:00,54.4,20.0,30.38,SE,134,2.0,3.0,26,0.00,,,0.00,weatherlink.com 1.10,2013-05-09 20:53:00,
2013-05-09 13:08:00,54.3,18.0,30.38,WNW,295,3.0,4.0,24,0.00,,,0.00,weatherlink.com 1.10,2013-05-09 21:08:00,
2013-05-09 13:23:00,54.3,18.0,30.37,NW,308,1.0,5.0,24,0.00,,,0.00,weatherlink.com 1.10,2013-05-09 21:23:00,
2013-05-09 13:38:00,55.3,21.0,30.37,WNW,302,0.0,4.0,26,0.00,,,0.00,weatherlink.com 1.10,2013-05-09 21:38:00,
2013-05-09 13:53:00,55.8,18.0,30.36,WNW,291,2.0,3.0,23,0.00,,,0.00,weatherlink.com 1.10,2013-05-09 21:53:00,
2013-05-09 14:08:00,55.5,19.0,30.36,East,94,0.0,3.0,24,0.00,,,0.00,weatherlink.com 1.10,2013-05-09 22:08:00,
2013-05-09 14:23:00,55.7,19.0,30.36,SSW,205,0.0,5.0,24,0.00,,,0.00,weatherlink.com 1.10,2013-05-09 22:23:00,
2013-05-09 14:38:00,56.1,20.0,30.35,NE,53,3.0,4.0,24,0.00,,,0.00,weatherlink.com 1.10,2013-05-09 22:38:00,
2013-05-09 14:53:00,56.3,20.0,30.35,SW,218,2.0,4.0,24,0.00,,,0.00,weatherlink.com 1.10,2013-05-09 22:53:00,
2013-05-09 15:08:00,56.7,19.0,30.34,SSE,148,0.0,2.0,23,0.00,,,0.00,weatherlink.com 1.10,2013-05-09 23:08:00,
2013-05-09 15:23:00,56.4,20.0,30.34,NW,319,2.0,4.0,24,0.00,,,0.00,weatherlink.com 1.10,2013-05-09 23:23:00,
2013-05-09 15:39:00,57.3,20.0,30.34,ESE,113,2.0,6.0,23,0.00,,,0.00,weatherlink.com 1.10,2013-05-09 23:39:00,
2013-05-09 15:54:00,57.5,19.0,30.33,NNE,27,2.0,4.0,22,0.00,,,0.00,weatherlink.com 1.10,2013-05-09 23:54:00,
2013-05-09 16:09:00,57.3,21.0,30.33,West,266,0.0,3.0,24,0.00,,,0.00,weatherlink.com 1.10,2013-05-10 00:09:00,
2013-05-09 16:24:00,56.7,19.0,30.32,NW,309,1.0,4.0,23,0.00,,,0.00,weatherlink.com 1.10,2013-05-10 00:24:00,
2013-05-09 16:39:00,56.6,19.0,30.32,WNW,290,0.0,3.0,23,0.00,,,0.00,weatherlink.com 1.10,2013-05-10 00:39:00,
2013-05-09 16:54:00,56.7,19.0,30.31,ESE,105,5.0,5.0,23,0.00,,,0.00,weatherlink.com 1.10,2013-05-10 00:54:00,
2013-05-09 17:09:00,56.7,19.0,30.31,NNE,29,0.0,2.0,23,0.00,,,0.00,weatherlink.com 1.10,2013-05-10 01:09:00,
2013-05-09 17:24:00,56.9,19.0,30.30,East,98,1.0,4.0,23,0.00,,,0.00,weatherlink.com 1.10,2013-05-10 01:24:00,
2013-05-09 17:39:00,57.2,18.0,30.30,WSW,257,0.0,3.0,22,0.00,,,0.00,weatherlink.com 1.10,2013-05-10 01:39:00,
2013-05-09 17:54:00,57.5,19.0,30.29,SW,226,1.0,3.0,22,0.00,,,0.00,weatherlink.com 1.10,2013-05-10 01:54:00,
2013-05-09 18:09:00,57.2,18.0,30.29,SW,223,1.0,2.0,22,0.00,,,0.00,weatherlink.com 1.10,2013-05-10 02:09:00,
2013-05-09 18:24:00,57.7,19.0,30.29,ENE,65,1.0,2.0,22,0.00,,,0.00,weatherlink.com 1.10,2013-05-10 02:24:00,
2013-05-09 18:39:00,57.5,19.0,30.28,WNW,293,0.0,4.0,22,0.00,,,0.00,weatherlink.com 1.10,2013-05-10 02:39:00,
2013-05-09 19:09:00,56.2,20.0,30.28,NE,56,2.0,6.0,24,0.00,,,0.00,weatherlink.com 1.10,2013-05-10 03:09:00,
2013-05-09 19:24:00,55.3,22.0,30.28,West,259,3.0,3.0,27,0.00,,,0.00,weatherlink.com 1.10,2013-05-10 03:24:00,
2013-05-09 19:39:00,54.8,21.0,30.28,North,11,0.0,4.0,27,0.00,,,0.00,weatherlink.com 1.10,2013-05-10 03:39:00,
2013-05-09 19:54:00,53.6,20.0,30.28,WSW,245,0.0,2.0,27,0.00,,,0.00,weatherlink.com 1.10,2013-05-10 03:54:00,
2013-05-09 20:09:00,53.1,21.0,30.28,NW,322,0.0,2.0,28,0.00,,,0.00,weatherlink.com 1.10,2013-05-10 04:09:00,
2013-05-09 20:24:00,53.2,20.0,30.28,WNW,284,0.0,1.0,27,0.00,,,0.00,weatherlink.com 1.10,2013-05-10 04:24:00,
2013-05-09 20:39:00,53.1,21.0,30.28,NE,34,0.0,1.0,28,0.00,,,0.00,weatherlink.com 1.10,2013-05-10 04:39:00,
2013-05-09 20:54:00,52.3,21.0,30.28,NW,319,0.0,1.0,29,0.00,,,0.00,weatherlink.com 1.10,2013-05-10 04:54:00,
2013-05-09 21:09:00,51.5,20.0,30.28,NW,319,0.0,0.0,29,0.00,,,0.00,weatherlink.com 1.10,2013-05-10 05:09:00,
2013-05-09 21:24:00,50.7,20.0,30.27,NW,319,0.0,0.0,30,0.00,,,0.00,weatherlink.com 1.10,2013-05-10 05:24:00,
2013-05-09 21:39:00,50.2,20.0,30.28,NW,319,0.0,0.0,31,0.00,,,0.00,weatherlink.com 1.10,2013-05-10 05:39:00,
2013-05-09 21:54:00,49.4,20.0,30.28,NW,319,0.0,0.0,32,0.00,,,0.00,weatherlink.com 1.10,2013-05-10 05:54:00,
2013-05-09 22:09:00,48.4,20.0,30.28,NW,319,0.0,0.0,33,0.00,,,0.00,weatherlink.com 1.10,2013-05-10 06:09:00,
2013-05-09 22:24:00,47.8,21.0,30.28,NW,319,0.0,0.0,34,0.00,,,0.00,weatherlink.com 1.10,2013-05-10 06:24:00,
2013-05-09 22:39:00,48.0,21.0,30.28,NW,319,0.0,1.0,35,0.00,,,0.00,weatherlink.com 1.10,2013-05-10 06:39:00,
2013-05-09 22:54:00,47.9,21.0,30.29,NW,319,0.0,1.0,35,0.00,,,0.00,weatherlink.com 1.10,2013-05-10 06:54:00,
2013-05-09 23:09:00,47.5,21.0,30.29,NW,319,0.0,0.0,35,0.00,,,0.00,weatherlink.com 1.10,2013-05-10 07:09:00,
2013-05-09 23:24:00,46.6,21.0,30.29,NW,319,0.0,0.0,36,0.00,,,0.00,weatherlink.com 1.10,2013-05-10 07:24:00,
2013-05-09 23:39:00,45.8,21.0,30.29,NW,319,0.0,0.0,38,0.00,,,0.00,weatherlink.com 1.10,2013-05-10 07:39:00,
2013-05-09 23:54:00,45.5,21.0,30.29,NW,319,0.0,0.0,38,0.00,,,0.00,weatherlink.com 1.10,2013-05-10 07:54:00,